Time;durP1;ratioP1;P1;durP2;ratioP2;P2;SDS_P1;SDS_P2;PMS_P1;PMS_P2;Temp;Humidity;BMP_temperature;BMP_pressure;BME280_temperature;BME280_humidity;BME280_pressure;Samples;Min_cycle;Max_cycle;Signal;HPM_P1;HPM_P2
2022/09/16 00:00:58;;;;;;;2.53;1.20;;;18.60;89.20;;;;;;4959443;28;20481;-74
2022/09/16 00:03:26;;;;;;;1.47;1.10;;;18.70;89.30;;;;;;4967242;28;20452;-73
2022/09/16 00:05:53;;;;;;;2.00;1.30;;;18.60;89.20;;;;;;4963400;28;20489;-73
2022/09/16 00:08:26;;;;;;;1.27;1.10;;;18.60;89.30;;;;;;4973932;28;20520;-73
2022/09/16 00:10:52;;;;;;;3.80;1.07;;;18.60;89.30;;;;;;4962029;28;21077;-72
2022/09/16 00:13:18;;;;;;;2.50;1.33;;;18.60;89.30;;;;;;4947333;28;20817;-73
2022/09/16 00:15:49;;;;;;;1.37;1.10;;;18.60;89.40;;;;;;4974896;28;20974;-73
2022/09/16 00:18:20;;;;;;;1.50;1.03;;;18.60;89.40;;;;;;4968100;28;20465;-73
2022/09/16 00:20:50;;;;;;;1.90;1.00;;;18.60;89.40;;;;;;4961205;28;20474;-73
2022/09/16 00:23:18;;;;;;;2.07;0.77;;;18.60;89.40;;;;;;4939409;29;20448;-73
2022/09/16 00:25:44;;;;;;;1.43;1.03;;;18.60;90.10;;;;;;4971389;28;20453;-73
2022/09/16 00:28:12;;;;;;;2.33;1.10;;;18.60;89.40;;;;;;4972347;28;20440;-73
2022/09/16 00:30:38;;;;;;;1.47;1.00;;;18.60;89.50;;;;;;4958076;28;20445;-73
2022/09/16 00:33:11;;;;;;;2.17;1.60;;;18.60;89.50;;;;;;4960931;28;20441;-73
2022/09/16 00:35:37;;;;;;;2.47;1.20;;;18.60;89.50;;;;;;4970863;28;20457;-73
2022/09/16 00:38:08;;;;;;;2.67;1.03;;;18.60;89.50;;;;;;4973298;28;20445;-73
2022/09/16 00:40:34;;;;;;;3.47;1.13;;;18.60;89.50;;;;;;4975028;28;20449;-71
2022/09/16 00:43:00;;;;;;;1.50;1.17;;;18.60;89.60;;;;;;4962279;28;20477;-73
2022/09/16 00:45:30;;;;;;;2.00;1.20;;;18.60;89.60;;;;;;4963496;28;20449;-73
2022/09/16 00:48:06;;;;;;;1.87;1.30;;;18.60;89.60;;;;;;4973156;28;20453;-73
2022/09/16 00:50:34;;;;;;;2.27;1.30;;;18.50;89.40;;;;;;4957137;28;20878;-73
2022/09/16 00:53:01;;;;;;;3.37;0.77;;;18.50;89.40;;;;;;4967643;28;20447;-75
2022/09/16 00:55:32;;;;;;;2.67;1.07;;;18.50;89.40;;;;;;4972718;28;20515;-74
2022/09/16 00:58:16;;;;;;;2.73;1.00;;;18.50;89.40;;;;;;4957721;28;20444;-73
2022/09/16 01:00:43;;;;;;;4.70;0.90;;;18.50;89.40;;;;;;4957553;28;20461;-73
2022/09/16 01:03:09;;;;;;;2.10;1.20;;;18.50;89.40;;;;;;4965947;28;20416;-73
2022/09/16 01:05:36;;;;;;;3.57;1.30;;;18.50;89.40;;;;;;4964818;28;20452;-73
2022/09/16 01:08:03;;;;;;;3.43;1.00;;;18.50;89.40;;;;;;4972553;28;20440;-74
2022/09/16 01:10:30;;;;;;;1.33;0.80;;;18.50;89.40;;;;;;4972796;28;20453;-74
2022/09/16 01:13:05;;;;;;;1.27;0.97;;;18.50;89.40;;;;;;4962895;28;20470;-74
2022/09/16 01:16:16;;;;;;;2.60;1.30;;;18.50;89.40;;;;;;4967088;28;20525;-74
2022/09/16 01:18:47;;;;;;;1.23;0.93;;;18.50;90.10;;;;;;4968706;28;20432;-73
2022/09/16 01:21:47;;;;;;;4.50;1.00;;;18.50;89.40;;;;;;4938639;28;20465;-74
2022/09/16 01:24:48;;;;;;;1.70;1.00;;;18.50;90.10;;;;;;4947701;28;20551;-74
2022/09/16 01:27:45;;;;;;;2.10;1.20;;;18.40;89.40;;;;;;4969143;28;20492;-73
2022/09/16 01:30:11;;;;;;;2.53;1.10;;;18.40;89.40;;;;;;4953763;29;20442;-73
2022/09/16 01:32:44;;;;;;;2.87;1.03;;;18.40;89.40;;;;;;4960618;28;20437;-73
2022/09/16 01:35:46;;;;;;;1.10;0.80;;;18.40;89.40;;;;;;4946233;29;20215;-73
2022/09/16 01:38:27;;;;;;;2.50;1.10;;;18.40;89.40;;;;;;4928048;29;20461;-73
2022/09/16 01:41:11;;;;;;;2.70;0.97;;;18.40;89.40;;;;;;4918740;29;20577;-74
2022/09/16 01:43:56;;;;;;;1.80;1.00;;;18.40;89.40;;;;;;4966449;28;20423;-73
2022/09/16 01:46:27;;;;;;;2.10;1.20;;;18.40;89.40;;;;;;4937762;29;20462;-73
2022/09/16 01:49:29;;;;;;;2.03;1.30;;;18.40;89.50;;;;;;4952931;28;20548;-73
2022/09/16 01:52:19;;;;;;;1.20;0.90;;;18.40;89.50;;;;;;4945049;28;20548;-73
2022/09/16 01:54:55;;;;;;;1.53;0.80;;;18.40;89.50;;;;;;4927309;28;20457;-73
2022/09/16 01:57:44;;;;;;;1.00;0.90;;;18.40;89.50;;;;;;4966737;28;20981;-73
2022/09/16 02:00:14;;;;;;;2.50;1.10;;;18.40;89.50;;;;;;4968652;28;20458;-73
2022/09/16 02:02:49;;;;;;;2.40;1.20;;;18.40;89.40;;;;;;4953330;28;20771;-73
2022/09/16 02:05:36;;;;;;;2.50;0.80;;;18.40;89.40;;;;;;4962635;28;20445;-73
2022/09/16 02:08:11;;;;;;;3.37;0.90;;;18.30;89.30;;;;;;4963951;28;20422;-73
2022/09/16 02:10:45;;;;;;;3.13;0.93;;;18.30;89.30;;;;;;4954156;28;20476;-73
2022/09/16 02:13:33;;;;;;;2.53;0.90;;;18.30;89.30;;;;;;4972570;28;20984;-73
2022/09/16 02:16:09;;;;;;;1.60;1.10;;;18.30;89.30;;;;;;4956227;28;20477;-73
2022/09/16 02:18:41;;;;;;;2.70;1.23;;;18.30;89.30;;;;;;4971107;28;20450;-73
2022/09/16 02:21:15;;;;;;;4.30;1.10;;;18.30;89.30;;;;;;4971553;28;20476;-73
2022/09/16 02:23:45;;;;;;;1.93;1.23;;;18.30;89.30;;;;;;4967691;28;20429;-73
2022/09/16 02:26:17;;;;;;;2.80;1.20;;;18.30;89.30;;;;;;4956225;28;21025;-73
2022/09/16 02:28:47;;;;;;;3.87;1.30;;;18.30;89.30;;;;;;4955179;28;20528;-73
2022/09/16 02:31:19;;;;;;;2.70;1.20;;;18.30;89.30;;;;;;4972108;28;20488;-73
2022/09/16 02:34:00;;;;;;;1.93;1.00;;;18.30;89.30;;;;;;4927892;28;21009;-73
2022/09/16 02:36:29;;;;;;;2.50;1.00;;;18.30;89.40;;;;;;4956032;28;20402;-73
2022/09/16 02:39:10;;;;;;;1.73;1.10;;;18.30;89.40;;;;;;4956652;28;20481;-73
2022/09/16 02:41:38;;;;;;;1.77;1.00;;;18.30;89.40;;;;;;4952483;29;20473;-73
2022/09/16 02:44:08;;;;;;;1.43;1.00;;;18.30;89.40;;;;;;4959965;28;20488;-73
2022/09/16 02:46:57;;;;;;;1.43;1.03;;;18.30;89.40;;;;;;4971984;28;20411;-73
2022/09/16 02:49:49;;;;;;;1.10;1.00;;;18.30;89.40;;;;;;4937211;29;20484;-73
2022/09/16 02:52:43;;;;;;;2.97;1.03;;;18.30;89.40;;;;;;4954586;28;20438;-73
2022/09/16 02:55:20;;;;;;;2.13;1.10;;;18.30;89.50;;;;;;4962504;28;20983;-73
2022/09/16 02:57:46;;;;;;;1.90;0.97;;;18.30;89.50;;;;;;4936934;29;20491;-73
2022/09/16 03:00:15;;;;;;;1.80;1.10;;;18.30;89.50;;;;;;4955646;28;20461;-73
2022/09/16 03:02:46;;;;;;;5.40;1.30;;;18.20;89.50;;;;;;4957769;28;20600;-73
2022/09/16 03:05:15;;;;;;;3.97;1.20;;;18.30;89.60;;;;;;4956905;28;20455;-73
2022/09/16 03:07:43;;;;;;;3.07;1.17;;;18.30;89.60;;;;;;4954089;28;20966;-73
2022/09/16 03:10:11;;;;;;;3.13;1.10;;;18.20;89.50;;;;;;4972313;28;20429;-73
2022/09/16 03:12:53;;;;;;;2.93;1.17;;;18.20;89.50;;;;;;4957265;28;20430;-74
2022/09/16 03:15:47;;;;;;;2.90;1.20;;;18.20;89.60;;;;;;4973597;28;20526;-73
2022/09/16 03:18:19;;;;;;;4.90;1.40;;;18.20;89.60;;;;;;4939503;29;20500;-73
2022/09/16 03:21:06;;;;;;;2.13;1.23;;;18.20;89.60;;;;;;4955832;29;20484;-73
2022/09/16 03:23:56;;;;;;;2.90;1.37;;;18.20;89.60;;;;;;4955050;28;20440;-73
2022/09/16 03:26:52;;;;;;;2.40;1.10;;;18.20;89.60;;;;;;4975494;28;20456;-73
2022/09/16 03:30:07;;;;;;;3.53;1.47;;;18.20;89.70;;;;;;4975501;28;20488;-70
2022/09/16 03:32:45;;;;;;;1.43;1.00;;;18.20;89.70;;;;;;4976246;28;20441;-71
2022/09/16 03:35:20;;;;;;;2.77;1.10;;;18.20;89.70;;;;;;4960215;28;20941;-71
2022/09/16 03:37:50;;;;;;;2.63;1.53;;;18.20;89.70;;;;;;4976257;28;20440;-71
2022/09/16 03:40:22;;;;;;;4.63;1.27;;;18.20;89.80;;;;;;4960048;28;20449;-71
2022/09/16 03:42:48;;;;;;;3.03;1.30;;;18.20;89.80;;;;;;4977329;28;20441;-71
2022/09/16 03:45:21;;;;;;;2.03;1.20;;;18.20;89.70;;;;;;4976440;28;20479;-71
2022/09/16 03:47:49;;;;;;;1.70;1.13;;;18.20;89.80;;;;;;4976173;28;20413;-71
2022/09/16 03:50:19;;;;;;;2.43;1.33;;;18.20;89.70;;;;;;4975975;28;20440;-71
2022/09/16 03:52:45;;;;;;;2.83;1.10;;;18.20;89.70;;;;;;4975943;28;20418;-71
2022/09/16 03:55:16;;;;;;;1.70;1.00;;;18.20;89.80;;;;;;4975918;28;20464;-71
2022/09/16 03:57:46;;;;;;;3.93;1.17;;;18.10;89.60;;;;;;4960225;28;20436;-71
2022/09/16 04:00:14;;;;;;;2.50;1.03;;;18.20;89.70;;;;;;4975736;28;20595;-71
2022/09/16 04:02:42;;;;;;;5.80;1.33;;;18.10;89.60;;;;;;4977171;28;20934;-71
2022/09/16 04:05:13;;;;;;;1.83;1.20;;;18.10;89.60;;;;;;4975873;28;20428;-71
2022/09/16 04:07:41;;;;;;;4.70;1.20;;;18.10;89.60;;;;;;4975504;28;20846;-71
2022/09/16 04:10:11;;;;;;;1.73;1.27;;;18.10;89.60;;;;;;4976842;28;20484;-71
2022/09/16 04:12:37;;;;;;;2.00;1.00;;;18.10;89.60;;;;;;4959467;28;20526;-71
2022/09/16 04:15:08;;;;;;;1.33;1.00;;;18.10;89.60;;;;;;4975557;28;20541;-71
2022/09/16 04:17:39;;;;;;;3.90;1.70;;;18.10;89.60;;;;;;4975725;28;20480;-70
2022/09/16 04:20:08;;;;;;;2.87;1.33;;;18.10;89.60;;;;;;4958784;28;20477;-71
2022/09/16 04:22:36;;;;;;;2.03;1.30;;;18.10;89.60;;;;;;4959480;28;20444;-71
2022/09/16 04:25:05;;;;;;;2.67;1.50;;;18.10;89.70;;;;;;4975245;28;20448;-71
2022/09/16 04:27:35;;;;;;;5.60;1.47;;;18.10;89.70;;;;;;4975107;28;20204;-71
2022/09/16 04:30:01;;;;;;;3.70;1.37;;;18.10;89.70;;;;;;4975198;28;20449;-72
2022/09/16 04:32:30;;;;;;;2.37;1.50;;;18.10;89.70;;;;;;4975401;28;20421;-72
2022/09/16 04:34:58;;;;;;;4.10;1.50;;;18.10;89.70;;;;;;4974928;28;20450;-73
2022/09/16 04:37:32;;;;;;;2.80;1.30;;;18.10;89.80;;;;;;4976073;28;20934;-72
2022/09/16 04:40:00;;;;;;;1.57;1.40;;;18.10;89.80;;;;;;4975020;28;21005;-73
2022/09/16 04:42:26;;;;;;;3.30;1.60;;;18.10;89.90;;;;;;4974675;28;20445;-72
2022/09/16 04:44:52;;;;;;;2.70;1.30;;;18.10;90.00;;;;;;4958891;28;20442;-72
2022/09/16 04:47:21;;;;;;;4.70;1.40;;;18.10;90.00;;;;;;4974122;28;20772;-71
2022/09/16 04:49:47;;;;;;;3.67;1.30;;;18.00;90.00;;;;;;4973056;28;20926;-71
2022/09/16 04:52:14;;;;;;;2.30;1.27;;;18.00;90.00;;;;;;4973969;28;20402;-72
2022/09/16 04:54:39;;;;;;;5.50;1.40;;;18.00;90.00;;;;;;4973841;28;20535;-72
2022/09/16 04:57:05;;;;;;;3.27;1.37;;;18.00;90.10;;;;;;4973836;28;20493;-72
2022/09/16 04:59:38;;;;;;;3.50;1.50;;;18.00;90.10;;;;;;4972536;28;20292;-71
2022/09/16 05:02:03;;;;;;;4.10;1.27;;;18.00;90.10;;;;;;4972739;28;20573;-72
2022/09/16 05:04:33;;;;;;;2.20;1.33;;;18.00;90.10;;;;;;4973398;28;20452;-72
2022/09/16 05:07:07;;;;;;;1.77;1.40;;;18.00;90.10;;;;;;4974500;28;20413;-73
2022/09/16 05:09:34;;;;;;;2.90;1.40;;;18.00;90.10;;;;;;4974336;28;20448;-71
2022/09/16 05:12:04;;;;;;;4.23;1.60;;;18.00;90.10;;;;;;4975219;28;20444;-70
2022/09/16 05:14:35;;;;;;;3.60;1.43;;;18.00;90.10;;;;;;4972749;28;20469;-72
2022/09/16 05:17:04;;;;;;;2.93;1.70;;;18.00;90.20;;;;;;4972778;28;20524;-71
2022/09/16 05:19:32;;;;;;;2.30;1.43;;;18.00;90.20;;;;;;4974029;28;20436;-72
2022/09/16 05:21:58;;;;;;;3.50;2.07;;;18.00;90.20;;;;;;4974024;28;20484;-70
2022/09/16 05:24:26;;;;;;;3.47;1.43;;;18.00;90.20;;;;;;4958001;28;20453;-72
2022/09/16 05:26:52;;;;;;;3.27;1.60;;;17.90;90.20;;;;;;4974236;28;20433;-73
2022/09/16 05:29:18;;;;;;;4.33;1.80;;;17.90;90.20;;;;;;4974023;28;20966;-73
2022/09/16 05:31:47;;;;;;;2.50;1.27;;;17.90;90.20;;;;;;4973852;28;20484;-72
2022/09/16 05:34:20;;;;;;;2.30;1.60;;;17.90;90.30;;;;;;4973881;28;20499;-71
2022/09/16 05:36:52;;;;;;;2.20;1.67;;;17.90;90.30;;;;;;4974161;28;20426;-71
2022/09/16 05:39:22;;;;;;;2.80;1.60;;;17.90;90.30;;;;;;4974939;28;20839;-72
2022/09/16 05:41:51;;;;;;;2.33;1.17;;;17.90;90.30;;;;;;4976613;28;20470;-72
2022/09/16 05:44:19;;;;;;;3.50;1.60;;;17.90;90.30;;;;;;4990124;28;20476;-71
2022/09/16 05:46:47;;;;;;;2.47;1.43;;;17.90;90.40;;;;;;4973900;28;20429;-72
2022/09/16 05:49:19;;;;;;;2.30;1.57;;;17.90;90.40;;;;;;4957771;28;21055;-72
2022/09/16 05:51:49;;;;;;;5.33;1.60;;;17.90;90.40;;;;;;4974701;28;20398;-73
2022/09/16 05:54:18;;;;;;;2.43;1.47;;;17.90;90.40;;;;;;4974414;28;20435;-73
2022/09/16 05:56:47;;;;;;;2.30;1.47;;;17.90;90.40;;;;;;4973798;28;20468;-72
2022/09/16 05:59:18;;;;;;;5.40;1.70;;;17.90;90.40;;;;;;4974815;28;20404;-72
2022/09/16 06:01:44;;;;;;;1.67;1.57;;;17.90;90.40;;;;;;4973776;28;20457;-71
2022/09/16 06:04:12;;;;;;;3.87;1.70;;;17.90;90.40;;;;;;4973027;28;20445;-71
2022/09/16 06:06:40;;;;;;;3.60;1.83;;;17.90;90.40;;;;;;4974602;28;20413;-72
2022/09/16 06:09:16;;;;;;;3.30;1.80;;;17.90;90.40;;;;;;4957593;28;20777;-72
2022/09/16 06:11:47;;;;;;;2.23;1.60;;;17.90;90.40;;;;;;4974513;28;20585;-72
2022/09/16 06:14:21;;;;;;;3.50;1.90;;;17.90;90.40;;;;;;4973248;28;20874;-72
2022/09/16 06:16:50;;;;;;;2.30;1.80;;;17.80;90.40;;;;;;4941092;28;20416;-72
2022/09/16 06:19:17;;;;;;;5.23;1.63;;;17.80;90.40;;;;;;4973562;28;20425;-72
2022/09/16 06:21:46;;;;;;;3.47;2.10;;;17.90;90.50;;;;;;4974439;28;20449;-72
2022/09/16 06:24:16;;;;;;;3.67;1.80;;;17.90;90.50;;;;;;4957319;28;20441;-72
2022/09/16 06:26:48;;;;;;;4.50;2.27;;;17.80;90.40;;;;;;4973434;28;20408;-72
2022/09/16 06:29:15;;;;;;;3.50;1.77;;;17.80;90.40;;;;;;4973113;28;20462;-72
2022/09/16 06:31:44;;;;;;;2.63;1.73;;;17.80;90.40;;;;;;4957204;28;20484;-71
2022/09/16 06:34:14;;;;;;;2.43;2.00;;;17.80;90.40;;;;;;4972532;28;20979;-72
2022/09/16 06:36:41;;;;;;;3.30;2.07;;;17.80;90.40;;;;;;4956372;28;20537;-72
2022/09/16 06:39:06;;;;;;;5.40;1.77;;;17.80;90.40;;;;;;4974125;28;21023;-72
2022/09/16 06:41:37;;;;;;;3.80;1.80;;;17.80;90.40;;;;;;4972480;28;20480;-71
2022/09/16 06:44:03;;;;;;;3.13;1.80;;;17.80;90.40;;;;;;4976830;28;20220;-72
2022/09/16 06:46:32;;;;;;;2.40;1.40;;;17.80;90.40;;;;;;4977114;28;20868;-73
2022/09/16 06:48:59;;;;;;;2.30;1.33;;;17.80;90.40;;;;;;4978086;28;20973;-73
2022/09/16 06:51:29;;;;;;;3.33;1.60;;;17.80;90.40;;;;;;4978128;28;20413;-72
2022/09/16 06:53:59;;;;;;;3.23;1.77;;;17.80;90.40;;;;;;4976930;28;20500;-75
2022/09/16 06:56:28;;;;;;;2.30;1.80;;;17.80;90.40;;;;;;4980829;28;21008;-74
2022/09/16 06:58:54;;;;;;;3.77;1.83;;;17.80;90.40;;;;;;4976745;28;20425;-75
2022/09/16 07:01:23;;;;;;;2.67;1.60;;;17.80;90.40;;;;;;4975916;28;20645;-71
2022/09/16 07:03:53;;;;;;;3.03;1.50;;;17.80;90.40;;;;;;4977894;28;20393;-73
2022/09/16 07:06:21;;;;;;;3.07;1.80;;;17.80;90.40;;;;;;4944906;28;20867;-71
2022/09/16 07:08:47;;;;;;;2.30;1.60;;;17.80;90.40;;;;;;4960442;28;20433;-72
2022/09/16 07:11:15;;;;;;;2.57;1.70;;;17.70;90.40;;;;;;4976643;28;20432;-73
2022/09/16 07:13:43;;;;;;;1.90;1.43;;;17.70;90.40;;;;;;4972953;28;20451;-71
2022/09/16 07:16:11;;;;;;;4.20;1.50;;;17.80;90.40;;;;;;4996024;28;20415;-73
2022/09/16 07:18:57;;;;;;;4.60;1.70;;;17.80;90.40;;;;;;4980943;28;20431;-73
2022/09/16 07:21:29;;;;;;;3.73;1.60;;;17.70;90.80;;;;;;4979401;28;20451;-71
2022/09/16 07:24:00;;;;;;;6.80;1.97;;;17.70;90.40;;;;;;4989356;28;20425;-73
2022/09/16 07:26:29;;;;;;;3.10;1.40;;;17.70;90.40;;;;;;4960398;28;20784;-72
2022/09/16 07:28:58;;;;;;;2.43;1.37;;;17.80;90.40;;;;;;4948609;28;20450;-73
2022/09/16 07:31:26;;;;;;;2.37;1.30;;;17.80;90.40;;;;;;4973818;28;20444;-73
2022/09/16 07:33:54;;;;;;;5.70;1.80;;;17.70;90.40;;;;;;4976054;28;20404;-74
2022/09/16 07:36:26;;;;;;;4.87;1.30;;;17.70;90.40;;;;;;4956452;29;20930;-73
2022/09/16 07:38:56;;;;;;;3.83;1.50;;;17.70;90.40;;;;;;4981368;28;21000;-72
2022/09/16 07:41:27;;;;;;;4.13;1.50;;;17.70;90.40;;;;;;4975868;28;21056;-71
2022/09/16 07:43:57;;;;;;;2.93;1.40;;;17.70;90.40;;;;;;4977083;28;20891;-72
2022/09/16 07:46:29;;;;;;;2.60;1.70;;;17.80;90.50;;;;;;4960153;28;20846;-72
2022/09/16 07:48:59;;;;;;;2.47;1.50;;;17.70;90.40;;;;;;4977018;28;20425;-73
2022/09/16 07:51:27;;;;;;;2.60;1.70;;;17.70;90.40;;;;;;4975826;28;20546;-73
2022/09/16 07:54:02;;;;;;;2.10;1.43;;;17.80;90.50;;;;;;4974217;28;20423;-71
2022/09/16 07:56:33;;;;;;;2.80;1.60;;;17.70;90.50;;;;;;4959780;28;20427;-71
2022/09/16 07:59:03;;;;;;;2.87;1.70;;;17.70;90.40;;;;;;4959771;28;20420;-71
2022/09/16 08:01:32;;;;;;;2.33;1.83;;;17.70;90.50;;;;;;4959484;28;20464;-72
2022/09/16 08:04:01;;;;;;;2.20;1.30;;;17.80;90.50;;;;;;4959727;28;20480;-71
2022/09/16 08:06:29;;;;;;;3.40;1.67;;;17.70;90.50;;;;;;4959498;28;20557;-71
2022/09/16 08:08:59;;;;;;;1.90;1.60;;;17.70;90.40;;;;;;4975613;28;20444;-71
2022/09/16 08:11:30;;;;;;;2.47;1.40;;;17.70;90.40;;;;;;4976731;28;20776;-71
2022/09/16 08:13:58;;;;;;;1.47;1.33;;;17.70;90.40;;;;;;4975572;28;20414;-71
2022/09/16 08:16:25;;;;;;;2.60;1.10;;;17.70;90.40;;;;;;4975283;28;20460;-71
2022/09/16 08:18:55;;;;;;;2.87;1.73;;;17.80;90.40;;;;;;4983944;28;20428;-72
2022/09/16 08:21:43;;;;;;;2.17;1.50;;;17.70;90.30;;;;;;4994066;28;21065;-73
2022/09/16 08:24:35;;;;;;;2.20;1.30;;;17.70;90.30;;;;;;4958444;28;20527;-71
2022/09/16 08:27:01;;;;;;;2.57;1.50;;;17.70;90.30;;;;;;4994701;28;20803;-71
2022/09/16 08:29:28;;;;;;;4.03;1.60;;;17.80;90.30;;;;;;4983714;28;20537;-71
2022/09/16 08:31:56;;;;;;;2.93;1.60;;;17.70;90.20;;;;;;4976571;28;20988;-71
2022/09/16 08:34:23;;;;;;;3.70;1.47;;;17.70;90.30;;;;;;4943114;28;20441;-71
2022/09/16 08:36:49;;;;;;;2.10;1.60;;;17.80;90.30;;;;;;4975146;28;20518;-71
2022/09/16 08:39:20;;;;;;;2.33;1.50;;;17.80;90.20;;;;;;4985100;28;20424;-71
2022/09/16 08:42:08;;;;;;;3.23;1.30;;;17.70;90.20;;;;;;4961774;28;20526;-71
2022/09/16 08:44:51;;;;;;;2.90;1.50;;;17.80;90.20;;;;;;4939739;29;20452;-71
2022/09/16 08:47:44;;;;;;;2.53;1.27;;;17.80;90.20;;;;;;4992463;28;20467;-71
2022/09/16 08:50:25;;;;;;;5.00;1.57;;;17.80;90.20;;;;;;4978027;28;20781;-71
2022/09/16 08:52:58;;;;;;;7.33;1.40;;;17.80;90.20;;;;;;4955197;29;20463;-71
2022/09/16 08:55:30;;;;;;;2.20;1.50;;;17.80;90.20;;;;;;4975368;28;20453;-71
2022/09/16 08:58:02;;;;;;;3.23;1.20;;;17.80;90.20;;;;;;4974535;28;20412;-71
2022/09/16 09:00:29;;;;;;;3.87;1.20;;;17.80;90.10;;;;;;4974772;28;20472;-71
2022/09/16 09:03:28;;;;;;;1.60;1.30;;;17.90;90.20;;;;;;4974538;28;20501;-71
2022/09/16 09:05:57;;;;;;;1.97;1.33;;;17.90;90.20;;;;;;4973963;28;20440;-71
2022/09/16 09:08:23;;;;;;;2.47;1.20;;;17.90;90.10;;;;;;4974305;28;20955;-71
2022/09/16 09:11:16;;;;;;;2.53;1.17;;;17.90;90.10;;;;;;4977784;28;21015;-71
2022/09/16 09:14:00;;;;;;;1.37;1.10;;;17.90;90.00;;;;;;4994852;28;20958;-71
2022/09/16 09:16:38;;;;;;;6.30;1.13;;;17.90;90.00;;;;;;4994777;28;20459;-71
2022/09/16 09:19:30;;;;;;;4.00;1.97;;;18.00;90.00;;;;;;4977526;28;20477;-71
2022/09/16 09:22:34;;;;;;;1.77;1.03;;;18.00;90.00;;;;;;4994818;28;20419;-71
2022/09/16 09:25:23;;;;;;;1.17;0.90;;;18.00;90.00;;;;;;4977148;28;20436;-71
2022/09/16 09:28:09;;;;;;;2.30;1.30;;;18.00;89.90;;;;;;4979797;28;20445;-72
2022/09/16 09:30:41;;;;;;;1.40;1.10;;;18.10;89.90;;;;;;4957216;28;20807;-71
2022/09/16 09:33:15;;;;;;;1.33;1.20;;;18.10;89.80;;;;;;4972732;28;20400;-71
2022/09/16 09:36:01;;;;;;;3.43;1.67;;;18.10;89.70;;;;;;4974267;28;20452;-72
2022/09/16 09:38:30;;;;;;;2.60;1.10;;;18.10;89.60;;;;;;4957402;28;20444;-72
2022/09/16 09:41:07;;;;;;;1.13;1.00;;;18.20;89.60;;;;;;4975239;28;20461;-71
2022/09/16 09:43:39;;;;;;;4.07;0.90;;;18.20;89.40;;;;;;4972851;28;20408;-71
2022/09/16 09:46:32;;;;;;;4.40;1.10;;;18.20;89.30;;;;;;4971060;28;20832;-70
2022/09/16 09:49:15;;;;;;;0.90;0.80;;;18.20;89.20;;;;;;4964140;28;20439;-69
2022/09/16 09:51:49;;;;;;;3.53;1.17;;;18.20;89.00;;;;;;4953405;28;20458;-72
2022/09/16 09:54:37;;;;;;;1.50;1.20;;;18.20;88.90;;;;;;4973446;28;21073;-73
2022/09/16 09:57:20;;;;;;;2.73;1.00;;;18.20;88.80;;;;;;4991884;28;20424;-72
2022/09/16 09:59:54;;;;;;;2.03;1.27;;;18.30;88.80;;;;;;4972627;28;20861;-72
2022/09/16 10:02:21;;;;;;;2.57;0.97;;;18.30;88.70;;;;;;4966921;28;20496;-72
2022/09/16 10:04:48;;;;;;;4.40;1.47;;;18.30;88.50;;;;;;4968762;28;20457;-72
2022/09/16 10:07:24;;;;;;;2.07;1.27;;;18.30;88.40;;;;;;4968068;28;20561;-72
2022/09/16 10:10:11;;;;;;;2.30;1.13;;;18.30;88.20;;;;;;4951576;29;20560;-72
2022/09/16 10:12:39;;;;;;;2.10;0.93;;;18.40;88.10;;;;;;4967806;28;20445;-73
2022/09/16 10:15:22;;;;;;;4.10;1.30;;;18.40;88.00;;;;;;4953415;28;20470;-72
2022/09/16 10:17:51;;;;;;;2.63;1.27;;;18.40;87.70;;;;;;4966572;28;20442;-73
2022/09/16 10:20:31;;;;;;;1.53;1.10;;;18.40;87.40;;;;;;4961282;28;20509;-72
2022/09/16 10:23:18;;;;;;;3.40;1.30;;;18.50;87.20;;;;;;4969502;28;20540;-73
2022/09/16 10:25:44;;;;;;;1.57;1.00;;;18.50;86.90;;;;;;4953000;28;20494;-74
2022/09/16 10:28:25;;;;;;;2.63;1.20;;;18.50;86.80;;;;;;4953841;28;20497;-71
2022/09/16 10:30:57;;;;;;;3.30;0.93;;;18.60;86.70;;;;;;4966140;28;20993;-70
2022/09/16 10:33:44;;;;;;;2.87;1.17;;;18.50;86.50;;;;;;4969878;28;20477;-72
2022/09/16 10:36:23;;;;;;;2.20;1.07;;;18.60;86.60;;;;;;4955531;28;20496;-71
2022/09/16 10:38:53;;;;;;;2.30;1.03;;;18.60;86.50;;;;;;4965653;28;20442;-71
2022/09/16 10:41:41;;;;;;;1.50;0.87;;;18.60;86.40;;;;;;4939318;28;20596;-73
2022/09/16 10:44:28;;;;;;;1.43;1.00;;;18.70;86.40;;;;;;4964115;28;21034;-72
2022/09/16 10:47:05;;;;;;;1.60;1.00;;;18.70;86.40;;;;;;4953394;28;20870;-73
2022/09/16 10:49:43;;;;;;;3.50;1.20;;;18.70;86.10;;;;;;4969987;28;20458;-71
2022/09/16 10:52:16;;;;;;;2.93;1.20;;;18.70;86.00;;;;;;4961735;28;20449;-73
2022/09/16 10:54:43;;;;;;;3.17;0.90;;;18.70;85.90;;;;;;4967021;28;20480;-73
2022/09/16 10:57:39;;;;;;;1.67;1.10;;;18.70;85.80;;;;;;4954639;28;20454;-72
2022/09/16 11:00:19;;;;;;;1.70;1.00;;;18.80;85.80;;;;;;4952115;28;20558;-71
2022/09/16 11:03:10;;;;;;;1.37;1.00;;;18.80;85.70;;;;;;4953430;28;20473;-73
2022/09/16 11:05:55;;;;;;;3.10;1.20;;;18.80;85.70;;;;;;4963039;28;20458;-72
2022/09/16 11:08:55;;;;;;;2.43;0.90;;;18.80;85.40;;;;;;4968500;28;20436;-72
2022/09/16 11:11:33;;;;;;;4.00;1.43;;;18.80;85.40;;;;;;4956471;28;20536;-71
2022/09/16 11:14:26;;;;;;;2.30;0.90;;;18.80;85.40;;;;;;4942943;29;20446;-71
2022/09/16 11:17:15;;;;;;;3.40;1.40;;;18.80;85.20;;;;;;4958712;28;20440;-72
2022/09/16 11:19:41;;;;;;;1.63;1.20;;;18.90;85.20;;;;;;4968443;28;20450;-71
2022/09/16 11:22:10;;;;;;;2.07;1.10;;;18.90;85.20;;;;;;4958878;28;20477;-71
2022/09/16 11:24:54;;;;;;;3.40;1.47;;;18.90;85.00;;;;;;4964981;28;20500;-73
2022/09/16 11:27:28;;;;;;;4.53;1.10;;;18.90;84.90;;;;;;4956461;28;20431;-71
2022/09/16 11:30:10;;;;;;;2.33;1.47;;;18.90;84.60;;;;;;4956549;28;20449;-72
2022/09/16 11:32:41;;;;;;;1.30;0.93;;;18.90;84.50;;;;;;4953160;29;20469;-71
2022/09/16 11:35:30;;;;;;;6.00;1.20;;;18.90;84.70;;;;;;4955106;28;20489;-71
2022/09/16 11:38:09;;;;;;;3.50;1.60;;;18.90;84.90;;;;;;4997324;23;20508;-71
2022/09/16 11:40:48;;;;;;;2.80;1.33;;;19.00;85.30;;;;;;4943513;29;20466;-69
2022/09/16 11:43:49;;;;;;;1.63;1.27;;;19.00;85.40;;;;;;4938839;29;20901;-71
2022/09/16 11:46:46;;;;;;;4.00;1.53;;;19.00;85.70;;;;;;4935090;29;20505;-71
2022/09/16 11:49:39;;;;;;;3.20;1.83;;;19.00;85.90;;;;;;4934804;29;20943;-71
2022/09/16 11:52:08;;;;;;;2.80;1.27;;;19.00;86.20;;;;;;4920017;29;20419;-71
2022/09/16 11:55:01;;;;;;;2.83;1.57;;;19.00;86.40;;;;;;4937330;29;21011;-70
2022/09/16 11:58:03;;;;;;;1.70;1.20;;;19.00;86.60;;;;;;4937488;29;20779;-71
2022/09/16 12:00:33;;;;;;;1.73;1.07;;;19.00;86.70;;;;;;4936595;29;20479;-70
2022/09/16 12:03:44;;;;;;;2.50;1.30;;;19.00;86.90;;;;;;4939703;29;20442;-71
2022/09/16 12:06:16;;;;;;;5.40;1.10;;;19.00;87.30;;;;;;4915223;29;20463;-71
2022/09/16 12:08:53;;;;;;;2.60;1.47;;;19.00;87.30;;;;;;4951112;28;20478;-71
2022/09/16 12:11:31;;;;;;;5.10;1.80;;;19.00;87.40;;;;;;4954915;29;20807;-75
2022/09/16 12:14:28;;;;;;;2.00;1.30;;;19.00;87.50;;;;;;4940032;29;20462;-71
2022/09/16 12:17:00;;;;;;;1.53;0.93;;;19.00;87.60;;;;;;4904448;29;20952;-74
2022/09/16 12:19:40;;;;;;;3.70;1.47;;;19.00;87.70;;;;;;4923426;29;20426;-75
2022/09/16 12:22:18;;;;;;;2.57;1.20;;;19.00;87.90;;;;;;4957564;29;20419;-72
2022/09/16 12:24:56;;;;;;;3.13;1.40;;;19.00;87.90;;;;;;4933175;29;20471;-73
2022/09/16 12:27:35;;;;;;;2.07;1.00;;;19.00;87.90;;;;;;4936958;29;20459;-71
2022/09/16 12:30:11;;;;;;;1.90;1.20;;;19.00;88.70;;;;;;4944503;29;20442;-73
2022/09/16 12:33:19;;;;;;;2.53;1.20;;;19.00;88.00;;;;;;4953404;29;20489;-73
2022/09/16 12:35:54;;;;;;;4.07;1.20;;;19.10;88.10;;;;;;4922861;29;20490;-73
2022/09/16 12:38:25;;;;;;;1.37;0.90;;;19.10;88.10;;;;;;4931570;29;20524;-71
2022/09/16 12:40:54;;;;;;;3.10;1.10;;;19.10;88.00;;;;;;4920762;29;20478;-73
2022/09/16 12:43:47;;;;;;;3.37;0.90;;;19.10;87.90;;;;;;4935004;29;20416;-72
2022/09/16 12:46:39;;;;;;;1.93;1.10;;;19.10;87.70;;;;;;4938493;29;20450;-72
2022/09/16 12:49:22;;;;;;;1.40;1.10;;;19.10;87.50;;;;;;4925525;29;20447;-71
2022/09/16 12:52:30;;;;;;;2.57;0.90;;;19.10;87.30;;;;;;4919296;29;20434;-73
2022/09/16 12:55:28;;;;;;;2.00;1.27;;;19.10;87.30;;;;;;4936360;29;20880;-73
2022/09/16 12:58:28;;;;;;;1.10;1.00;;;19.10;87.10;;;;;;4969345;28;20867;-73
2022/09/16 13:01:00;;;;;;;2.17;1.00;;;19.10;87.00;;;;;;4953028;29;20481;-73
2022/09/16 13:03:31;;;;;;;5.70;1.30;;;19.10;87.00;;;;;;4922956;29;20990;-72
2022/09/16 13:06:08;;;;;;;1.43;1.00;;;19.10;87.00;;;;;;4936548;29;20446;-72
2022/09/16 13:08:37;;;;;;;1.20;0.90;;;19.10;87.00;;;;;;4925100;29;20822;-73
2022/09/16 13:11:14;;;;;;;2.10;1.10;;;19.10;87.00;;;;;;4938812;29;20418;-72
2022/09/16 13:13:46;;;;;;;1.83;1.00;;;19.20;87.10;;;;;;4955157;28;20470;-72
2022/09/16 13:16:12;;;;;;;1.97;1.00;;;19.20;87.70;;;;;;4970523;28;20414;-72
2022/09/16 13:18:49;;;;;;;2.10;1.00;;;19.20;86.80;;;;;;4937974;29;20481;-75
2022/09/16 13:21:28;;;;;;;1.53;1.10;;;19.20;86.60;;;;;;4923387;29;20502;-73
2022/09/16 13:24:17;;;;;;;4.60;1.60;;;19.20;86.40;;;;;;4938362;29;20466;-73
2022/09/16 13:26:46;;;;;;;2.20;1.10;;;19.20;86.20;;;;;;4936766;29;20455;-74
2022/09/16 13:29:36;;;;;;;1.47;1.07;;;19.20;86.10;;;;;;4969166;28;20446;-75